createdAt,value
2018-02-08T17:29:16.678Z,77.6
2018-02-08T17:30:18.059Z,77.6
2018-02-08T17:31:19.585Z,77.7
2018-02-08T17:32:21.248Z,78.4
2018-02-08T17:33:22.972Z,78.2
2018-02-08T17:34:24.921Z,78.5
2018-02-08T17:35:26.601Z,79.1
2018-02-08T17:36:28.273Z,78.8
2018-02-08T17:37:30.697Z,78.8
2018-02-08T17:38:32.210Z,79.0
2018-02-08T17:39:34.065Z,78.7
2018-02-08T17:40:35.476Z,78.8
2018-02-08T17:41:37.072Z,78.9
2018-02-08T17:42:38.884Z,78.3
2018-02-08T17:43:40.668Z,78.6
2018-02-08T17:44:42.106Z,78.4
2018-02-08T17:45:43.850Z,78.4
2018-02-08T17:46:45.275Z,78.6
2018-02-08T17:47:46.827Z,78.3
2018-02-08T17:48:48.592Z,78.4
2018-02-08T17:49:49.961Z,78.3
2018-02-08T17:50:51.438Z,78.3
2018-02-08T17:51:53.150Z,78.2
2018-02-08T17:52:54.838Z,78.0
2018-02-08T17:53:56.552Z,77.7
2018-02-08T17:54:58.241Z,77.8
2018-02-08T17:55:59.888Z,78.0
2018-02-08T17:57:01.579Z,77.9
2018-02-08T17:58:03.126Z,78.0
2018-02-08T17:59:04.896Z,77.8
2018-02-08T18:00:06.385Z,77.5
2018-02-08T18:01:08.133Z,77.7
2018-02-08T18:02:11.188Z,78.4
2018-02-08T18:03:12.648Z,78.3
2018-02-08T18:04:14.378Z,78.4
2018-02-08T18:05:16.148Z,78.8
2018-02-08T18:06:17.741Z,79.2
2018-02-08T18:07:19.187Z,79.0
2018-02-08T18:08:20.593Z,79.6
2018-02-08T18:09:22.080Z,79.5
2018-02-08T18:10:23.826Z,79.7
2018-02-08T18:11:25.594Z,80.2
2018-02-08T18:12:27.280Z,80.6
2018-02-08T18:13:28.810Z,80.3
2018-02-08T18:14:30.257Z,80.3
2018-02-08T18:15:31.990Z,80.5
2018-02-08T18:16:33.527Z,80.3
2018-02-08T18:17:34.946Z,80.1
2018-02-08T18:18:36.769Z,80.5
2018-02-08T18:19:38.390Z,81.0
2018-02-08T18:20:39.789Z,80.8
2018-02-08T18:21:41.494Z,80.7
2018-02-08T18:22:43.149Z,81.0
2018-02-08T18:23:44.830Z,81.1
2018-02-08T18:24:46.552Z,80.8
2018-02-08T18:25:48.116Z,81.1
2018-02-08T18:26:49.863Z,80.9
2018-02-08T18:27:51.429Z,80.6
2018-02-08T18:28:52.940Z,80.2
2018-02-08T18:29:54.623Z,80.3
2018-02-08T18:30:56.331Z,80.5
2018-02-08T18:31:57.771Z,80.1
2018-02-08T18:32:59.277Z,80.0
2018-02-08T18:34:00.897Z,79.9
2018-02-08T18:35:02.742Z,79.8
2018-02-08T18:36:04.262Z,79.9
2018-02-08T18:37:05.969Z,79.9
2018-02-08T18:38:07.743Z,80.2
2018-02-08T18:39:09.380Z,80.2
2018-02-08T18:40:10.955Z,80.3
2018-02-08T18:41:12.684Z,80.2
2018-02-08T18:42:14.423Z,80.4
2018-02-08T18:43:15.991Z,80.4
2018-02-08T18:44:17.826Z,80.5
2018-02-08T18:45:19.500Z,80.1
2018-02-08T18:46:21.209Z,80.1
2018-02-08T18:47:22.995Z,80.1
2018-02-08T18:48:24.691Z,80.4
2018-02-08T18:49:26.133Z,80.1
2018-02-08T18:50:27.802Z,80.7
2018-02-08T18:51:29.268Z,80.6
2018-02-08T18:52:30.935Z,80.6
2018-02-08T18:53:32.388Z,80.6
2018-02-08T18:54:33.879Z,80.5
2018-02-08T18:55:35.493Z,80.7
2018-02-08T18:56:37.062Z,80.9
2018-02-08T18:57:38.913Z,80.7
2018-02-08T18:58:40.683Z,81.5
2018-02-08T18:59:42.452Z,81.3
2018-02-08T19:00:44.059Z,81.6
2018-02-08T19:01:45.761Z,81.7
2018-02-08T19:02:47.492Z,81.6
2018-02-08T19:03:49.252Z,81.4
2018-02-08T19:04:50.703Z,81.7
2018-02-08T19:05:52.300Z,80.6
2018-02-08T19:06:54.097Z,81.0
2018-02-08T19:07:55.756Z,80.5
2018-02-08T19:08:57.211Z,79.7
2018-02-08T19:09:58.783Z,79.9
2018-02-08T19:11:00.501Z,79.8
2018-02-08T19:12:02.162Z,80.2
2018-02-08T19:13:03.928Z,80.0
2018-02-08T19:14:05.376Z,80.1
2018-02-08T19:15:07.105Z,80.2
2018-02-08T19:16:08.923Z,80.1
2018-02-08T19:17:10.778Z,80.6
2018-02-08T19:18:12.203Z,80.5
2018-02-08T19:19:14.000Z,80.7
2018-02-08T19:20:15.732Z,80.6
2018-02-08T19:21:17.203Z,81.1
2018-02-08T19:22:19.108Z,81.1
2018-02-08T19:23:20.778Z,80.5
2018-02-08T19:24:22.512Z,81.1
2018-02-08T19:25:24.134Z,81.0
2018-02-08T19:26:25.899Z,80.3
2018-02-08T19:27:27.333Z,80.5
2018-02-08T19:28:28.798Z,80.7
2018-02-08T19:29:30.404Z,80.5
2018-02-08T19:30:31.997Z,80.7
2018-02-08T19:31:33.611Z,80.7
2018-02-08T19:32:35.283Z,80.5
2018-02-08T19:33:36.836Z,80.7
2018-02-08T19:34:38.625Z,80.2
2018-02-08T19:35:40.127Z,80.2
2018-02-08T19:36:41.618Z,80.2
2018-02-08T19:37:43.954Z,79.5
2018-02-08T19:38:45.425Z,79.5
2018-02-08T19:39:47.138Z,78.7
2018-02-08T19:40:48.715Z,78.8
2018-02-08T19:41:50.159Z,78.5
2018-02-08T19:42:51.633Z,78.8
2018-02-08T19:43:53.090Z,78.3
2018-02-08T19:44:54.615Z,78.6
2018-02-08T19:45:56.261Z,78.3
2018-02-08T19:46:57.958Z,78.2
2018-02-08T19:47:59.420Z,77.5
2018-02-08T19:49:00.955Z,77.9
2018-02-08T19:50:02.696Z,77.3
2018-02-08T19:51:04.382Z,77.3
2018-02-08T19:52:05.992Z,76.9
2018-02-08T19:53:07.459Z,76.6
2018-02-08T19:54:09.250Z,77.4
2018-02-08T19:55:10.929Z,77.3
2018-02-08T19:56:12.605Z,76.9
2018-02-08T19:57:14.304Z,77.4
2018-02-08T19:58:15.858Z,77.3
2018-02-08T19:59:17.305Z,76.9
2018-02-08T20:00:18.999Z,77.1
2018-02-08T20:01:20.734Z,77.2
2018-02-08T20:02:22.285Z,76.8
2018-02-08T20:03:24.030Z,77.0
2018-02-08T20:04:25.733Z,76.9
2018-02-08T20:05:27.454Z,77.1
2018-02-08T20:06:28.937Z,77.4
2018-02-08T20:07:30.783Z,76.8
2018-02-08T20:08:32.427Z,77.3
2018-02-08T20:09:34.182Z,77.4
2018-02-08T20:10:35.635Z,77.3
2018-02-08T20:11:37.207Z,77.2
2018-02-08T20:12:38.890Z,77.1
2018-02-08T20:13:40.334Z,76.8
2018-02-08T20:14:41.984Z,77.3
2018-02-08T20:15:43.726Z,76.7
2018-02-08T20:16:45.414Z,77.1
2018-02-08T20:17:47.064Z,77.3
2018-02-08T20:18:48.691Z,77.3
2018-02-08T20:19:50.347Z,77.1
2018-02-08T20:20:51.838Z,77.1
2018-02-08T20:21:53.473Z,76.8
2018-02-08T20:22:55.199Z,76.6
2018-02-08T20:23:56.677Z,75.7
2018-02-08T20:24:58.466Z,75.7
2018-02-08T20:26:00.098Z,75.7
2018-02-08T20:27:01.601Z,75.6
2018-02-08T20:28:03.164Z,76.2
2018-02-08T20:29:04.846Z,76.0
2018-02-08T20:30:06.429Z,76.2
2018-02-08T20:31:07.982Z,76.4
2018-02-08T20:32:09.758Z,76.3
2018-02-08T20:33:11.548Z,76.6
2018-02-08T20:34:13.184Z,76.6
2018-02-08T20:35:14.654Z,76.3
2018-02-08T20:36:16.358Z,76.3
2018-02-08T20:37:18.212Z,76.6
2018-02-08T20:38:19.978Z,76.4
2018-02-08T20:39:21.644Z,76.6
2018-02-08T20:40:23.388Z,76.7
2018-02-08T20:41:25.093Z,76.3
2018-02-08T20:42:26.679Z,76.4
2018-02-08T20:43:28.497Z,76.3
2018-02-08T20:44:30.158Z,76.4
2018-02-08T20:45:31.881Z,76.6
2018-02-08T20:46:33.620Z,76.4
2018-02-08T20:47:35.268Z,76.8
2018-02-08T20:48:36.888Z,77.0
2018-02-08T20:49:38.495Z,76.8
2018-02-08T20:50:40.188Z,76.8
2018-02-08T20:51:41.811Z,77.0
2018-02-08T20:52:43.426Z,77.0
2018-02-08T20:53:45.195Z,77.0
2018-02-08T20:54:46.666Z,77.3
2018-02-08T20:55:48.356Z,77.4
2018-02-08T20:56:50.133Z,77.3
2018-02-08T20:57:51.824Z,77.0
2018-02-08T20:58:53.230Z,76.9
2018-02-08T20:59:55.007Z,77.2
2018-02-08T21:00:57.428Z,76.8
2018-02-08T21:01:59.320Z,76.7
2018-02-08T21:03:00.997Z,76.8
2018-02-08T21:04:02.660Z,77.0
2018-02-08T21:05:04.157Z,78.0
2018-02-08T21:06:05.896Z,77.5
2018-02-08T21:07:07.332Z,78.5
2018-02-08T21:08:08.991Z,78.3
2018-02-08T21:09:10.687Z,79.2
2018-02-08T21:10:12.325Z,78.6
2018-02-08T21:11:14.053Z,78.9
2018-02-08T21:12:15.498Z,78.9
2018-02-08T21:13:17.204Z,79.2
2018-02-08T21:14:18.956Z,79.2
2018-02-08T21:15:20.644Z,79.0
2018-02-08T21:16:22.438Z,78.7
2018-02-08T21:17:24.101Z,78.5
2018-02-08T21:18:25.847Z,78.9
2018-02-08T21:19:27.295Z,78.9
2018-02-08T21:20:28.854Z,79.8
2018-02-08T21:21:30.449Z,79.3
2018-02-08T21:22:32.165Z,79.5
2018-02-08T21:23:33.733Z,79.5
2018-02-08T21:24:35.481Z,79.9
2018-02-08T21:25:37.267Z,79.6
2018-02-08T21:26:38.970Z,80.3
2018-02-08T21:27:40.713Z,79.9
2018-02-08T21:28:42.414Z,80.0
2018-02-08T21:29:44.109Z,79.9
2018-02-08T21:30:45.855Z,79.9
2018-02-08T21:31:47.595Z,79.8
2018-02-08T21:32:49.223Z,80.0
2018-02-08T21:33:50.910Z,80.1
2018-02-08T21:34:52.660Z,80.3
2018-02-08T21:35:54.102Z,80.0
2018-02-08T21:36:55.752Z,79.9
2018-02-08T21:37:57.420Z,80.6
2018-02-08T21:38:59.223Z,80.2
2018-02-08T21:40:00.974Z,80.1
2018-02-08T21:41:02.769Z,80.4
2018-02-08T21:42:04.319Z,81.1
2018-02-08T21:43:05.766Z,80.9
2018-02-08T21:44:07.523Z,80.8
2018-02-08T21:45:09.075Z,81.1
2018-02-08T21:46:10.501Z,80.7
2018-02-08T21:47:12.179Z,81.3
2018-02-08T21:48:13.755Z,81.5
2018-02-08T21:49:15.408Z,81.5
2018-02-08T21:50:17.093Z,80.9
2018-02-08T21:51:18.856Z,80.8
2018-02-08T21:52:20.530Z,80.2
2018-02-08T21:53:21.967Z,80.1
2018-02-08T21:54:23.518Z,80.4
2018-02-08T21:55:25.155Z,80.1
2018-02-08T21:56:26.807Z,80.1
2018-02-08T21:57:28.541Z,80.1
2018-02-08T21:58:29.949Z,80.4
2018-02-08T21:59:31.644Z,80.2
2018-02-08T22:00:33.109Z,80.6
2018-02-08T22:01:34.604Z,80.4
2018-02-08T22:02:36.078Z,80.2
2018-02-08T22:03:37.547Z,80.1
2018-02-08T22:04:39.319Z,80.1
2018-02-08T22:05:41.080Z,80.2
2018-02-08T22:06:42.505Z,80.2
2018-02-08T22:07:44.171Z,80.1
2018-02-08T22:08:45.950Z,80.4
2018-02-08T22:09:47.641Z,80.0
2018-02-08T22:10:49.332Z,79.9
2018-02-08T22:11:51.136Z,80.0
2018-02-08T22:12:52.647Z,80.2
2018-02-08T22:13:54.358Z,80.4
2018-02-08T22:14:56.117Z,80.1
2018-02-08T22:15:57.833Z,79.9
2018-02-08T22:16:59.280Z,80.0
2018-02-08T22:18:00.918Z,80.0
2018-02-08T22:19:02.422Z,79.9
2018-02-08T22:20:04.173Z,79.9
2018-02-08T22:21:05.632Z,80.3
2018-02-08T22:22:07.247Z,80.0
2018-02-08T22:23:08.913Z,80.3
2018-02-08T22:24:10.419Z,80.2
2018-02-08T22:25:11.908Z,80.3
2018-02-08T22:26:13.547Z,80.1
2018-02-08T22:27:14.981Z,80.4
2018-02-08T22:28:16.657Z,79.9
2018-02-08T22:29:18.323Z,79.9
2018-02-08T22:30:20.007Z,79.9
2018-02-08T22:31:21.646Z,79.9
2018-02-08T22:32:23.340Z,80.0
2018-02-08T22:33:25.031Z,80.4
2018-02-08T22:34:26.641Z,80.8
2018-02-08T22:35:28.159Z,80.2
2018-02-08T22:36:29.771Z,80.8
2018-02-08T22:37:31.383Z,81.0
2018-02-08T22:38:32.877Z,80.6
2018-02-08T22:39:34.575Z,80.8
2018-02-08T22:40:36.019Z,80.8
2018-02-08T22:41:37.566Z,80.6
2018-02-08T22:42:39.280Z,80.7
2018-02-08T22:43:40.962Z,81.0
2018-02-08T22:44:42.817Z,80.4
2018-02-08T22:45:44.509Z,80.7
2018-02-08T22:46:46.169Z,80.5
2018-02-08T22:47:47.847Z,80.4
2018-02-08T22:48:49.315Z,81.1
2018-02-08T22:49:51.061Z,80.9
2018-02-08T22:50:52.566Z,80.8
2018-02-08T22:51:54.304Z,81.0
2018-02-08T22:52:55.950Z,81.3
2018-02-08T22:53:57.546Z,80.8
2018-02-08T22:54:59.884Z,80.9
2018-02-08T22:56:01.523Z,80.5
2018-02-08T22:57:03.115Z,80.9
2018-02-08T22:58:04.980Z,80.9
2018-02-08T22:59:06.575Z,81.1
2018-02-08T23:00:08.289Z,80.9
2018-02-08T23:01:09.976Z,80.8
2018-02-08T23:02:11.637Z,81.2
2018-02-08T23:03:13.184Z,81.3
2018-02-08T23:04:14.642Z,80.7
2018-02-08T23:05:16.388Z,80.7
2018-02-08T23:06:18.096Z,80.7
2018-02-08T23:07:19.571Z,80.8
2018-02-08T23:08:21.081Z,80.7
2018-02-08T23:09:22.826Z,80.7
2018-02-08T23:10:24.527Z,80.7
2018-02-08T23:11:26.258Z,81.4
2018-02-08T23:12:27.922Z,81.4
2018-02-08T23:13:29.688Z,81.4
2018-02-08T23:14:31.466Z,81.3
2018-02-08T23:15:32.957Z,81.5
2018-02-08T23:16:34.761Z,81.3
2018-02-08T23:17:36.490Z,81.5
2018-02-08T23:18:38.112Z,81.5
2018-02-08T23:19:39.615Z,81.2
2018-02-08T23:20:41.145Z,80.9
2018-02-08T23:21:42.834Z,80.7
2018-02-08T23:22:44.471Z,80.7
2018-02-08T23:23:46.145Z,81.6
2018-02-08T23:24:47.800Z,81.2
2018-02-08T23:25:49.299Z,80.7
2018-02-08T23:26:50.961Z,81.1
2018-02-08T23:27:52.661Z,80.9
2018-02-08T23:28:54.332Z,81.3
2018-02-08T23:29:56.113Z,81.1
2018-02-08T23:30:57.808Z,81.2
2018-02-08T23:31:59.584Z,81.3
2018-02-08T23:33:01.347Z,81.4
2018-02-08T23:34:03.080Z,81.5
2018-02-08T23:35:04.773Z,81.4
2018-02-08T23:36:06.311Z,81.4
2018-02-08T23:37:08.042Z,81.4
2018-02-08T23:38:09.777Z,81.2
2018-02-08T23:39:11.457Z,81.3
2018-02-08T23:40:13.199Z,81.6
2018-02-08T23:41:14.860Z,81.5
2018-02-08T23:42:16.611Z,81.2
2018-02-08T23:43:18.414Z,80.7
2018-02-08T23:44:19.867Z,80.7
2018-02-08T23:45:21.597Z,80.7
2018-02-08T23:46:23.081Z,80.6
2018-02-08T23:47:24.611Z,80.7
2018-02-08T23:48:26.330Z,80.8
2018-02-08T23:49:27.827Z,80.5
2018-02-08T23:50:29.581Z,80.5
2018-02-08T23:51:31.314Z,80.4
2018-02-08T23:52:32.857Z,80.9
2018-02-08T23:53:34.621Z,80.7
2018-02-08T23:54:36.366Z,81.1
2018-02-08T23:55:38.081Z,80.8
2018-02-08T23:56:39.814Z,81.1
2018-02-08T23:57:41.618Z,81.0
2018-02-08T23:58:43.307Z,80.8
2018-02-08T23:59:44.838Z,80.8
